Flight Track Log - Related Links

Times and Time Zones

All times are in EDT time to prevent confusion due to time zone crossing. See the UAL1521 flight status page for this flight to view local times or setup timezone preferences in your user account.


Time Position Orientation Groundspeed Altitude Reporting Facility
EDT Latitude Longitude Course Direction KTS MPH feet Rate Location/Type
Sun 08:57:39 AM 40.6732 -74.1807 206° Southwest 130 150 600  Level FlightAware ADS-B
Sun 08:57:46 AM 40.6679 -74.1837 203° Southwest 177 204 900 2,727 Climbing FlightAware ADS-B
Sun 08:57:50 AM 40.6652 -74.1847 196° South 177 204 1,100 2,250 Climbing FlightAware ADS-B
Sun 08:57:54 AM 40.6615 -74.1856 190° South 180 207 1,200 2,000 Climbing FlightAware ADS-B
Sun 08:58:05 AM 40.6521 -74.1877 190° South 185 213 1,600 1,800 Climbing FlightAware ADS-B
Sun 08:58:14 AM 40.6457 -74.1917 205° Southwest 191 220 1,800 1,385 Climbing FlightAware ADS-B
Sun 08:58:18 AM 40.6423 -74.1954 220° Southwest 195 224 1,900 1,333 Climbing FlightAware ADS-B
Sun 08:58:23 AM 40.6395 -74.2003 233° Southwest 201 231 2,000 1,714 Climbing FlightAware ADS-B
Sun 08:58:32 AM 40.6367 -74.2098 249° West 206 237 2,300 2,000 Climbing FlightAware ADS-B
Sun 08:58:38 AM 40.6356 -74.2178 260° West 214 246 2,500 3,130 Climbing FlightAware ADS-B
Sun 08:58:55 AM 40.6338 -74.2396 264° West 214 246 3,500 3,375 Climbing FlightAware ADS-B
Sun 08:59:10 AM 40.6323 -74.2595 264° West 215 247 4,300 3,000 Climbing FlightAware ADS-B
Sun 08:59:15 AM 40.6317 -74.2660 263° West 214 246 4,500 2,000 Climbing FlightAware ADS-B
Sun 08:59:25 AM 40.6306 -74.2797 264° West 232 267 4,800 2,000 Climbing FlightAware ADS-B
Sun 08:59:30 AM 40.6300 -74.2876 264° West 235 270 5,000 2,857 Climbing FlightAware ADS-B
Sun 08:59:46 AM 40.6285 -74.3106 265° West 245 282 5,800 3,176 Climbing FlightAware ADS-B
Sun 08:59:47 AM 40.6283 -74.3130 264° West 244 281 5,900 3,600 Climbing FlightAware ADS-B
Sun 09:00:01 AM 40.6262 -74.3330 262° West 246 283 6,700 3,310 Climbing FlightAware ADS-B
Sun 09:00:16 AM 40.6237 -74.3559 262° West 250 288 7,500 3,097 Climbing FlightAware ADS-B
Sun 09:00:32 AM 40.6213 -74.3791 262° West 252 290 8,300 3,290 Climbing FlightAware ADS-B
Sun 09:00:47 AM 40.6191 -74.4019 263° West 253 291 9,200 3,333 Climbing FlightAware ADS-B
Sun 09:01:17 AM 40.6149 -74.4479 263° West 254 292 10,800 2,032 Climbing FlightAware ADS-B
Sun 09:01:49 AM 40.6098 -74.5028 263° West 298 343 11,300 1,355 Climbing FlightAware ADS-B
Sun 09:02:19 AM 40.6044 -74.5607 263° West 326 375 12,200 2,286 Climbing FlightAware ADS-B
Sun 09:02:52 AM 40.5983 -74.6261 263° West 334 384 13,700 2,571 Climbing FlightAware ADS-B
Sun 09:03:22 AM 40.5926 -74.6879 263° West 341 392 14,900 2,571 Climbing FlightAware ADS-B
Sun 09:03:55 AM 40.5862 -74.7548 263° West 343 395 16,400 2,531 Climbing FlightAware ADS-B
Sun 09:04:26 AM 40.5800 -74.8190 263° West 350 403 17,600 2,323 Climbing FlightAware ADS-B
Sun 09:04:57 AM 40.5735 -74.8857 263° West 356 410 18,800 2,459 Climbing FlightAware ADS-B
Sun 09:05:27 AM 40.5672 -74.9503 263° West 356 410 20,100 2,449 Climbing FlightAware ADS-B
Sun 09:05:46 AM 40.5633 -74.9902 263° West 357 411 20,800 2,077 Climbing FlightAware ADS-B
Sun 09:05:53 AM 40.5609 -75.0050 258° West 355 409 21,000 1,895 Climbing FlightAware ADS-B
Sun 09:06:05 AM 40.5542 -75.0291 250° West 350 403 21,400 2,000 Climbing FlightAware ADS-B
Sun 09:06:11 AM 40.5493 -75.0415 243° Southwest 350 403 21,600 2,000 Climbing FlightAware ADS-B
Sun 09:06:17 AM 40.5440 -75.0522 237° Southwest 350 403 21,800 1,737 Climbing FlightAware ADS-B
Sun 09:06:49 AM 40.5110 -75.1053 231° Southwest 357 411 22,700 2,000 Climbing FlightAware ADS-B
Sun 09:07:20 AM 40.4781 -75.1572 230° Southwest 357 411 23,900 2,226 Climbing FlightAware ADS-B
Sun 09:07:51 AM 40.4462 -75.2079 230° Southwest 353 406 25,000 1,967 Climbing FlightAware ADS-B
Sun 09:08:21 AM 40.4144 -75.2582 230° Southwest 353 406 25,900 1,574 Climbing FlightAware ADS-B
Sun 09:08:52 AM 40.3829 -75.3080 230° Southwest 358 412 26,600 1,238 Climbing FlightAware ADS-B
Sun 09:09:24 AM 40.3486 -75.3619 230° Southwest 364 419 27,200 1,125 Climbing FlightAware ADS-B
Sun 09:09:56 AM 40.3134 -75.4174 230° Southwest 372 428 27,800 1,258 Climbing FlightAware ADS-B
Sun 09:10:26 AM 40.2798 -75.4700 230° Southwest 372 428 28,500 1,574 Climbing FlightAware ADS-B
Sun 09:10:57 AM 40.2464 -75.5223 230° Southwest 370 426 29,400 1,731 Climbing FlightAware ADS-B
Sun 09:11:18 AM 40.2233 -75.5592 231° Southwest 369 425 30,000 1,529 Climbing FlightAware ADS-B
Sun 09:11:48 AM 40.1945 -75.6155 236° Southwest 369 425 30,700 1,400 Climbing FlightAware ADS-B
Sun 09:12:18 AM 40.1670 -75.6696 236° Southwest 368 423 31,400 1,300 Climbing FlightAware ADS-B
Sun 09:12:48 AM 40.1350 -75.7214 231° Southwest 367 422 32,000 1,082 Climbing FlightAware ADS-B
Sun 09:13:19 AM 40.1014 -75.7749 231° Southwest 370 426 32,500 1,065 Climbing FlightAware ADS-B
Sun 09:13:50 AM 40.0675 -75.8288 231° Southwest 371 427 33,100 1,082 Climbing FlightAware ADS-B
Sun 09:14:20 AM 40.0348 -75.8811 231° Southwest 370 426 33,600 1,180 Climbing FlightAware ADS-B
Sun 09:14:51 AM 40.0012 -75.9343 231° Southwest 366 421 34,300 1,258 Climbing FlightAware ADS-B
Sun 09:15:22 AM 39.9689 -75.9857 231° Southwest 364 419 34,900 787 Climbing FlightAware ADS-B
Sun 09:15:52 AM 39.9365 -76.0371 231° Southwest 370 426 35,100 400 Climbing FlightAware ADS-B
Sun 09:16:22 AM 39.9037 -76.0889 230° Southwest 375 432 35,300 492 Climbing FlightAware ADS-B
Sun 09:16:53 AM 39.8695 -76.1430 231° Southwest 379 436 35,600 590 Climbing FlightAware ADS-B
Sun 09:17:23 AM 39.8353 -76.1968 230° Southwest 383 441 35,900 393 Climbing FlightAware ADS-B
Sun 09:17:54 AM 39.8002 -76.2523 231° Southwest 384 442 36,000 98 Climbing FlightAware ADS-B
Sun 09:18:24 AM 39.7662 -76.3057 230° Southwest 385 443 36,000  Level FlightAware ADS-B
Sun 09:18:55 AM 39.7313 -76.3606 230° Southwest 384 442 36,000  Level FlightAware ADS-B
Sun 09:19:31 AM 39.6914 -76.4230 230° Southwest 381 438 36,000  Level FlightAware ADS-B
Sun 09:20:01 AM 39.6577 -76.4757 230° Southwest 379 436 36,000  Level FlightAware ADS-B
Sun 09:20:32 AM 39.6225 -76.5306 230° Southwest 378 435 36,000  Level FlightAware ADS-B
Sun 09:21:02 AM 39.5888 -76.5831 230° Southwest 378 435 36,000  Level FlightAware ADS-B
Sun 09:21:32 AM 39.5551 -76.6353 230° Southwest 378 435 36,000  Level FlightAware ADS-B
Sun 09:22:03 AM 39.5211 -76.6880 230° Southwest 376 433 36,000  Level FlightAware ADS-B
Sun 09:22:33 AM 39.4871 -76.7407 230° Southwest 376 433 36,000  Level FlightAware ADS-B
Sun 09:23:05 AM 39.4526 -76.7942 230° Southwest 375 432 36,000  Level FlightAware ADS-B
Sun 09:23:35 AM 39.4193 -76.8456 230° Southwest 375 432 36,000  Level FlightAware ADS-B
Sun 09:24:05 AM 39.3859 -76.8973 230° Southwest 373 429 36,000  Level FlightAware ADS-B
Sun 09:24:35 AM 39.3524 -76.9486 230° Southwest 373 429 36,000  Level FlightAware ADS-B
Sun 09:25:07 AM 39.3167 -77.0036 230° Southwest 374 430 36,000  Level FlightAware ADS-B
Sun 09:25:37 AM 39.2833 -77.0547 230° Southwest 373 429 36,000  Level FlightAware ADS-B
Sun 09:26:09 AM 39.2484 -77.1084 230° Southwest 374 430 36,000  Level FlightAware ADS-B
Sun 09:26:39 AM 39.2149 -77.1596 230° Southwest 372 428 36,000  Level FlightAware ADS-B
Sun 09:27:10 AM 39.1805 -77.2119 230° Southwest 374 430 36,000  Level FlightAware ADS-B
Sun 09:27:40 AM 39.1463 -77.2642 230° Southwest 375 432 36,000  Level FlightAware ADS-B
Sun 09:28:12 AM 39.1108 -77.3183 230° Southwest 375 432 36,000  Level FlightAware ADS-B
Sun 09:28:43 AM 39.0764 -77.3705 230° Southwest 375 432 36,000  Level FlightAware ADS-B
Sun 09:29:14 AM 39.0407 -77.4245 230° Southwest 378 435 36,000  Level FlightAware ADS-B
Sun 09:29:52 AM 39.0010 -77.4840 229° Southwest 378 435 36,000  Level FlightAware ADS-B
Sun 09:30:01 AM 38.9877 -77.5048 231° Southwest 378 435 36,000  Level FlightAware ADS-B
Sun 09:30:40 AM 38.9435 -77.5715 230° Southwest 378 435 36,000  Level FlightAware ADS-B
Sun 09:31:12 AM 38.9079 -77.6251 230° Southwest 377 434 36,000  Level FlightAware ADS-B
Sun 09:31:54 AM 38.8612 -77.6955 230° Southwest 374 430 36,000  Level FlightAware ADS-B
Sun 09:32:35 AM 38.8144 -77.7658 230° Southwest 375 432 36,000  Level FlightAware ADS-B
Sun 09:33:23 AM 38.7603 -77.8467 229° Southwest 374 430 36,000  Level FlightAware ADS-B
Sun 09:34:11 AM 38.7064 -77.9270 229° Southwest 377 434 36,000  Level FlightAware ADS-B
Sun 09:34:57 AM 38.6550 -78.0040 229° Southwest 378 435 36,000  Level FlightAware ADS-B
Sun 09:35:37 AM 38.6090 -78.0720 229° Southwest 378 435 36,000  Level FlightAware ADS-B
Sun 09:36:07 AM 38.5760 -78.1200 229° Southwest 379 436 36,000  Level FlightAware ADS-B
Sun 09:36:42 AM 38.5370 -78.1790 230° Southwest 380 437 36,000  Level FlightAware ADS-B
Sun 09:37:42 AM 38.4690 -78.2800 229° Southwest 382 440 36,000  Level FlightAware ADS-B
Sun 09:38:42 AM 38.3990 -78.3830 229° Southwest 384 442 36,000  Level FlightAware ADS-B
Sun 09:39:17 AM 38.3580 -78.4430 229° Southwest 384 442 36,000  Level FlightAware ADS-B
Sun 09:39:52 AM 38.3170 -78.5020 228° Southwest 386 444 36,000  Level FlightAware ADS-B
Sun 09:40:32 AM 38.2700 -78.5710 229° Southwest 389 448 36,000  Level FlightAware ADS-B
Sun 09:41:07 AM 38.2290 -78.6310 229° Southwest 389 448 36,000  Level FlightAware ADS-B
Sun 09:41:37 AM 38.1930 -78.6840 229° Southwest 389 448 36,000  Level FlightAware ADS-B
Sun 09:42:07 AM 38.1560 -78.7380 229° Southwest 391 450 36,000  Level FlightAware ADS-B
Sun 09:43:02 AM 38.0960 -78.8230 228° Southwest 393 452 36,000  Level FlightAware ADS-B
Sun 09:44:17 AM 38.0000 -78.9640 229° Southwest 395 455 36,000  Level FlightAware ADS-B
Sun 09:45:02 AM 37.9500 -79.0350 228° Southwest 394 453 36,000  Level FlightAware ADS-B
Sun 09:46:02 AM 37.8810 -79.1470 232° Southwest 390 449 36,000  Level FlightAware ADS-B
Sun 09:46:57 AM 37.8260 -79.2560 237° Southwest 389 448 36,000  Level FlightAware ADS-B
Sun 09:48:02 AM 37.7660 -79.3780 238° Southwest 391 450 36,000  Level FlightAware ADS-B
Sun 09:48:42 AM 37.7290 -79.4510 237° Southwest 392 451 36,000  Level FlightAware ADS-B
Sun 09:49:27 AM 37.6880 -79.5310 237° Southwest 392 451 36,000  Level FlightAware ADS-B
Sun 09:49:47 AM 37.6720 -79.5640 239° Southwest 392 451 36,000  Level FlightAware ADS-B
Sun 09:50:30 AM 37.6328 -79.6644 239° Southwest 400 460 36,000  Level Washington Center
Sun 09:51:28 AM 37.5867 -79.7878 245° Southwest 395 455 36,000  Level Washington Center
Sun 09:52:29 AM 37.5406 -79.9136 245° Southwest 401 461 36,000  Level Washington Center
Sun 09:53:28 AM 37.4992 -80.0158 243° Southwest 389 448 36,000  Level Washington Center
Sun 09:54:28 AM 37.4553 -80.1311 244° Southwest 377 434 36,000  Level Washington Center
Sun 09:56:46 AM 37.3531 -80.3839 243° Southwest 353 406 36,000  Level Atlanta Center
Sun 09:57:46 AM 37.3103 -80.4956 244° Southwest 353 406 36,000  Level Atlanta Center
Sun 09:58:46 AM 37.2656 -80.6044 243° Southwest 353 406 36,000  Level Atlanta Center
Sun 09:59:46 AM 37.2039 -80.7167 235° Southwest 360 414 36,000  Level Atlanta Center
Sun 10:05:10 AM 36.9034 -81.2926 235° Southwest 372 428 36,000  Level FlightAware ADS-B
Sun 10:05:44 AM 36.8714 -81.3526 236° Southwest 374 430 36,000  Level FlightAware ADS-B
Sun 10:06:15 AM 36.8419 -81.4082 236° Southwest 374 430 36,000  Level FlightAware ADS-B
Sun 10:06:45 AM 36.8130 -81.4623 236° Southwest 372 428 36,000  Level FlightAware ADS-B
Sun 10:07:16 AM 36.7838 -81.5168 236° Southwest 372 428 36,000  Level FlightAware ADS-B
Sun 10:07:46 AM 36.7546 -81.5715 236° Southwest 374 430 36,000  Level FlightAware ADS-B
Sun 10:08:19 AM 36.7233 -81.6300 236° Southwest 375 432 36,000  Level FlightAware ADS-B
Sun 10:08:50 AM 36.6938 -81.6851 236° Southwest 374 430 36,000  Level FlightAware ADS-B
Sun 10:09:22 AM 36.6626 -81.7431 236° Southwest 373 429 36,000  Level FlightAware ADS-B
Sun 10:09:53 AM 36.6328 -81.7979 236° Southwest 372 428 36,000  Level FlightAware ADS-B
Sun 10:10:24 AM 36.6032 -81.8529 236° Southwest 373 429 36,000  Level FlightAware ADS-B
Sun 10:10:54 AM 36.5744 -81.9064 236° Southwest 372 428 36,000  Level FlightAware ADS-B
Sun 10:11:27 AM 36.5433 -81.9639 236° Southwest 371 427 36,000  Level FlightAware ADS-B
Sun 10:11:57 AM 36.5142 -82.0175 236° Southwest 370 426 36,000  Level FlightAware ADS-B
Sun 10:12:28 AM 36.4850 -82.0711 236° Southwest 367 422 36,000  Level FlightAware ADS-B
Sun 10:13:01 AM 36.4539 -82.1285 236° Southwest 365 420 36,000  Level FlightAware ADS-B
Sun 10:13:31 AM 36.4255 -82.1807 236° Southwest 364 419 36,000  Level FlightAware ADS-B
Sun 10:14:03 AM 36.3950 -82.2366 236° Southwest 363 418 36,000  Level FlightAware ADS-B
Sun 10:14:36 AM 36.3647 -82.2920 236° Southwest 363 418 36,000  Level FlightAware ADS-B
Sun 10:15:06 AM 36.3357 -82.3447 236° Southwest 363 418 36,000  Level FlightAware ADS-B
Sun 10:15:38 AM 36.3061 -82.3988 236° Southwest 362 417 36,000  Level FlightAware ADS-B
Sun 10:16:09 AM 36.2767 -82.4523 236° Southwest 361 415 36,000  Level FlightAware ADS-B
Sun 10:16:45 AM 36.2425 -82.5146 236° Southwest 363 418 36,000  Level FlightAware ADS-B
Sun 10:17:17 AM 36.2122 -82.5697 236° Southwest 364 419 36,000  Level FlightAware ADS-B
Sun 10:17:49 AM 36.1818 -82.6247 236° Southwest 366 421 36,000  Level FlightAware ADS-B
Sun 10:18:26 AM 36.1471 -82.6875 236° Southwest 368 423 36,000  Level FlightAware ADS-B
Sun 10:18:59 AM 36.1153 -82.7449 236° Southwest 370 426 36,000  Level FlightAware ADS-B
Sun 10:19:42 AM 36.0736 -82.8202 236° Southwest 371 427 36,000  Level FlightAware ADS-B
Sun 10:20:12 AM 36.0441 -82.8733 236° Southwest 372 428 36,000  Level FlightAware ADS-B
Sun 10:20:56 AM 36.0016 -82.9492 235° Southwest 373 429 36,000  Level FlightAware ADS-B
Sun 10:21:26 AM 35.9715 -83.0031 235° Southwest 375 432 36,000  Level FlightAware ADS-B
Sun 10:21:57 AM 35.9410 -83.0577 235° Southwest 376 433 36,000  Level FlightAware ADS-B
Sun 10:22:31 AM 35.9075 -83.1176 235° Southwest 376 433 36,000  Level FlightAware ADS-B
Sun 10:23:03 AM 35.8760 -83.1739 235° Southwest 377 434 36,000  Level FlightAware ADS-B
Sun 10:23:34 AM 35.8453 -83.2285 235° Southwest 377 434 36,000  Level FlightAware ADS-B
Sun 10:24:05 AM 35.8149 -83.2825 235° Southwest 377 434 36,000  Level FlightAware ADS-B
Sun 10:24:35 AM 35.7848 -83.3359 235° Southwest 378 435 36,000  Level FlightAware ADS-B
Sun 10:25:06 AM 35.7542 -83.3901 235° Southwest 379 436 36,000  Level FlightAware ADS-B
Sun 10:25:37 AM 35.7227 -83.4459 235° Southwest 379 436 36,000  Level FlightAware ADS-B
Sun 10:26:08 AM 35.6926 -83.4992 235° Southwest 379 436 36,000  Level FlightAware ADS-B
Sun 10:26:38 AM 35.6621 -83.5528 235° Southwest 379 436 36,000  Level FlightAware ADS-B
Sun 10:27:09 AM 35.6307 -83.6080 235° Southwest 379 436 36,000  Level FlightAware ADS-B
Sun 10:27:39 AM 35.6007 -83.6609 235° Southwest 379 436 36,000  Level FlightAware ADS-B
Sun 10:28:09 AM 35.5706 -83.7138 235° Southwest 378 435 36,000  Level FlightAware ADS-B
Sun 10:28:40 AM 35.5398 -83.7678 235° Southwest 378 435 36,000  Level FlightAware ADS-B
Sun 10:29:10 AM 35.5095 -83.8210 235° Southwest 378 435 36,000  Level FlightAware ADS-B
Sun 10:29:41 AM 35.4782 -83.8756 235° Southwest 379 436 36,000  Level FlightAware ADS-B
Sun 10:30:11 AM 35.4479 -83.9284 235° Southwest 380 437 36,000  Level FlightAware ADS-B
Sun 10:30:46 AM 35.4134 -83.9884 235° Southwest 382 440 36,000  Level FlightAware ADS-B
Sun 10:31:17 AM 35.3817 -84.0434 235° Southwest 383 441 36,000  Level FlightAware ADS-B
Sun 10:31:48 AM 35.3498 -84.0989 235° Southwest 381 438 36,000  Level FlightAware ADS-B
Sun 10:32:18 AM 35.3194 -84.1519 235° Southwest 380 437 36,000  Level FlightAware ADS-B
Sun 10:32:49 AM 35.2885 -84.2053 235° Southwest 379 436 36,000  Level FlightAware ADS-B
Sun 10:33:19 AM 35.2578 -84.2584 235° Southwest 378 435 36,000  Level FlightAware ADS-B
Sun 10:33:50 AM 35.2265 -84.3122 235° Southwest 379 436 36,000  Level FlightAware ADS-B
Sun 10:34:20 AM 35.1958 -84.3650 235° Southwest 379 436 36,000  Level FlightAware ADS-B
Sun 10:34:52 AM 35.1638 -84.4201 235° Southwest 380 437 36,000  Level FlightAware ADS-B
Sun 10:35:23 AM 35.1327 -84.4738 235° Southwest 378 435 36,000  Level FlightAware ADS-B
Sun 10:35:53 AM 35.1021 -84.5263 235° Southwest 377 434 36,000  Level FlightAware ADS-B
Sun 10:36:23 AM 35.0716 -84.5786 235° Southwest 377 434 36,000  Level FlightAware ADS-B
Sun 10:36:54 AM 35.0407 -84.6315 235° Southwest 376 433 36,000  Level FlightAware ADS-B
Sun 10:37:24 AM 35.0099 -84.6840 234° Southwest 374 430 36,000  Level FlightAware ADS-B
Sun 10:37:55 AM 34.9796 -84.7355 234° Southwest 372 428 36,000  Level FlightAware ADS-B
Sun 10:38:52 AM 34.9310 -84.8180 234° Southwest 366 421 36,000  Level FlightAware ADS-B
Sun 10:40:07 AM 34.8540 -84.9490 234° Southwest 367 422 36,000  Level FlightAware ADS-B
Sun 10:40:16 AM 34.8385 -84.9751 234° Southwest 36,000  Level FlightAware ADS-B
Sun 10:40:57 AM 34.7981 -85.0436 234° Southwest 366 421 36,000  Level FlightAware ADS-B
Sun 10:41:28 AM 34.7682 -85.0940 234° Southwest 362 417 36,000  Level FlightAware ADS-B
Sun 10:42:02 AM 34.7352 -85.1495 234° Southwest 362 417 36,000  Level FlightAware ADS-B
Sun 10:42:32 AM 34.7056 -85.1993 234° Southwest 361 415 36,000  Level FlightAware ADS-B
Sun 10:43:23 AM 34.6555 -85.2834 234° Southwest 361 415 36,000  Level FlightAware ADS-B
Sun 10:44:47 AM 34.5820 -85.4060 234° Southwest 359 413 36,000  Level FlightAware ADS-B
Sun 10:46:12 AM 34.4940 -85.5540 234° Southwest 36,000  Level FlightAware ADS-B
Sun 10:46:19 AM 34.4850 -85.5688 234° Southwest 358 412 36,000  Level FlightAware ADS-B
Sun 10:46:53 AM 34.4513 -85.6246 234° Southwest 358 412 36,000  Level FlightAware ADS-B
Sun 10:47:24 AM 34.4210 -85.6746 234° Southwest 358 412 36,000  Level FlightAware ADS-B
Sun 10:47:54 AM 34.3916 -85.7233 234° Southwest 357 411 36,000  Level FlightAware ADS-B
Sun 10:48:31 AM 34.3556 -85.7830 234° Southwest 357 411 36,000  Level FlightAware ADS-B
Sun 10:49:02 AM 34.3254 -85.8332 234° Southwest 359 413 36,000  Level FlightAware ADS-B
Sun 10:49:40 AM 34.2888 -85.8934 234° Southwest 359 413 36,000  Level FlightAware ADS-B
Sun 10:50:11 AM 34.2583 -85.9438 234° Southwest 358 412 36,000  Level FlightAware ADS-B
Sun 10:51:50 AM 34.1610 -86.1037 234° Southwest 358 412 36,000  Level FlightAware ADS-B
Sun 10:52:45 AM 34.1073 -86.1915 234° Southwest 358 412 36,000  Level FlightAware ADS-B
Sun 10:55:47 AM 33.9280 -86.4830 234° Southwest 359 413 36,000  Level FlightAware ADS-B
Sun 10:56:27 AM 33.8900 -86.5460 234° Southwest 358 412 36,000  Level FlightAware ADS-B
Sun 10:57:37 AM 33.8230 -86.6530 233° Southwest 356 410 36,000  Level FlightAware ADS-B
Sun 10:58:57 AM 33.7430 -86.7820 233° Southwest 355 409 36,000  Level FlightAware ADS-B
Sun 11:00:32 AM 33.6520 -86.9270 233° Southwest 352 405 36,000  Level FlightAware ADS-B
Sun 11:01:17 AM 33.6080 -86.9950 232° Southwest 352 405 36,000  Level FlightAware ADS-B
Sun 11:01:57 AM 33.5740 -87.0480 232° Southwest 352 405 36,000  Level FlightAware ADS-B
Sun 11:03:07 AM 33.5140 -87.1390 232° Southwest 352 405 36,000  Level FlightAware ADS-B
Sun 11:03:57 AM 33.4710 -87.2050 232° Southwest 352 405 36,000  Level FlightAware ADS-B
Sun 11:04:37 AM 33.4370 -87.2570 232° Southwest 352 405 36,000  Level FlightAware ADS-B
Sun 11:05:07 AM 33.4120 -87.2960 232° Southwest 352 405 36,000  Level FlightAware ADS-B
Sun 11:05:37 AM 33.3860 -87.3350 231° Southwest 352 405 36,000  Level FlightAware ADS-B
Sun 11:06:37 AM 33.3350 -87.4140 232° Southwest 352 405 36,000  Level FlightAware ADS-B
Sun 11:07:17 AM 33.3010 -87.4660 232° Southwest 352 405 36,000  Level FlightAware ADS-B
Sun 11:07:47 AM 33.2750 -87.5050 231° Southwest 352 405 36,000  Level FlightAware ADS-B
Sun 11:08:57 AM 33.2160 -87.5960 232° Southwest 352 405 36,000  Level FlightAware ADS-B
Sun 11:09:47 AM 33.1730 -87.6620 232° Southwest 352 405 36,000  Level FlightAware ADS-B
Sun 11:10:27 AM 33.1390 -87.7140 232° Southwest 352 405 36,000  Level FlightAware ADS-B
Sun 11:10:47 AM 33.1220 -87.7400 232° Southwest 352 405 36,000  Level FlightAware ADS-B
Sun 11:11:44 AM 32.9864 -87.9253 232° Southwest 348 400 36,000  Level Memphis Center
Sun 11:17:12 AM 32.6510 -88.4100 232° Southwest 349 402 36,000  Level FlightAware ADS-B
Sun 11:17:47 AM 32.6180 -88.4580 231° Southwest 350 403 36,000  Level FlightAware ADS-B
Sun 11:18:52 AM 32.5590 -88.5420 230° Southwest 350 403 36,000  Level FlightAware ADS-B
Sun 11:19:32 AM 32.5080 -88.6180 232° Southwest 353 406 36,000  Level FlightAware ADS-B
Sun 11:20:07 AM 32.4730 -88.6680 230° Southwest 355 409 36,000  Level FlightAware ADS-B
Sun 11:20:52 AM 32.4310 -88.7270 230° Southwest 355 409 36,000  Level FlightAware ADS-B
Sun 11:21:22 AM 32.4040 -88.7650 230° Southwest 355 409 36,000  Level FlightAware ADS-B
Sun 11:22:02 AM 32.3680 -88.8160 230° Southwest 355 409 36,000  Level FlightAware ADS-B
Sun 11:22:52 AM 32.3230 -88.8790 230° Southwest 355 409 36,000  Level FlightAware ADS-B
Sun 11:23:52 AM 32.2690 -88.9550 230° Southwest 355 409 36,000  Level FlightAware ADS-B
Sun 11:24:22 AM 32.2430 -88.9930 231° Southwest 355 409 36,000 1,263 Level FlightAware ADS-B
Sun 11:25:27 AM 32.1380 -89.1350 229° Southwest 347 399 38,000 1,091 Climbing FlightAware ADS-B
Sun 11:26:12 AM 32.0910 -89.1990 229° Southwest 349 402 38,000  Level FlightAware ADS-B
Sun 11:26:42 AM 32.0580 -89.2430 228° Southwest 350 403 38,000  Level FlightAware ADS-B
Sun 11:27:37 AM 32.0070 -89.3130 229° Southwest 350 403 38,000  Level FlightAware ADS-B
Sun 11:29:22 AM 31.8910 -89.4700 229° Southwest 353 406 38,000  Level FlightAware ADS-B
Sun 11:29:52 AM 31.8640 -89.5070 229° Southwest 353 406 38,000  Level FlightAware ADS-B
Sun 11:30:42 AM 31.8020 -89.5910 229° Southwest 355 409 38,000  Level FlightAware ADS-B
Sun 11:31:32 AM 31.7480 -89.6650 229° Southwest 357 411 38,000  Level FlightAware ADS-B
Sun 11:32:17 AM 31.7020 -89.7250 228° Southwest 357 411 38,000  Level FlightAware ADS-B
Sun 11:32:47 AM 31.6740 -89.7610 228° Southwest 357 411 38,000  Level FlightAware ADS-B
Sun 11:33:57 AM 31.6080 -89.8470 228° Southwest 357 411 38,000  Level FlightAware ADS-B
Sun 11:35:27 AM 31.5240 -89.9570 228° Southwest 357 411 38,000  Level FlightAware ADS-B
Sun 11:35:57 AM 31.4960 -89.9940 228° Southwest 357 411 38,000  Level FlightAware ADS-B
Sun 11:37:17 AM 31.3720 -90.1690 230° Southwest 357 411 38,000  Level FlightAware ADS-B
Sun 11:37:57 AM 31.3270 -90.2290 229° Southwest 357 411 38,000  Level FlightAware ADS-B
Sun 11:38:32 AM 31.2950 -90.2820 235° Southwest 348 400 38,000  Level FlightAware ADS-B
Sun 11:39:22 AM 31.2640 -90.3560 244° Southwest 347 399 38,000  Level FlightAware ADS-B
Sun 11:40:37 AM 31.2120 -90.4930 246° West 346 398 38,000  Level FlightAware ADS-B
Sun 11:41:07 AM 31.1910 -90.5470 246° West 346 398 38,000  Level FlightAware ADS-B
Sun 11:42:22 AM 31.1420 -90.6690 245° Southwest 347 399 38,000  Level FlightAware ADS-B
Sun 11:43:12 AM 31.1060 -90.7590 245° Southwest 348 400 38,000  Level FlightAware ADS-B
Sun 11:43:47 AM 31.0830 -90.8170 245° Southwest 348 400 38,000  Level FlightAware ADS-B
Sun 11:44:37 AM 31.0510 -90.8980 245° Southwest 349 402 38,000  Level FlightAware ADS-B
Sun 11:45:22 AM 31.0180 -90.9810 245° Southwest 349 402 38,000  Level FlightAware ADS-B
Sun 11:46:07 AM 30.9880 -91.0550 245° Southwest 350 403 38,000  Level FlightAware ADS-B
Sun 11:46:47 AM 30.9600 -91.1250 245° Southwest 352 405 38,000  Level FlightAware ADS-B
Sun 11:47:32 AM 30.9280 -91.2030 244° Southwest 352 405 38,000  Level FlightAware ADS-B
Sun 11:48:07 AM 30.9050 -91.2620 246° West 353 406 38,000  Level FlightAware ADS-B
Sun 11:48:52 AM 30.8770 -91.3290 244° Southwest 353 406 38,000  Level FlightAware ADS-B
Sun 11:49:32 AM 30.8520 -91.3870 243° Southwest 353 406 38,000  Level FlightAware ADS-B
Sun 11:50:12 AM 30.8280 -91.4460 245° Southwest 353 406 38,000  Level FlightAware ADS-B
Sun 11:50:52 AM 30.8040 -91.5040 244° Southwest 353 406 38,000  Level FlightAware ADS-B
Sun 11:51:42 AM 30.7730 -91.5760 243° Southwest 353 406 38,000  Level FlightAware ADS-B
Sun 11:52:22 AM 30.7490 -91.6340 244° Southwest 353 406 38,000  Level FlightAware ADS-B
Sun 11:53:02 AM 30.7240 -91.6920 243° Southwest 353 406 38,000  Level FlightAware ADS-B
Sun 11:53:42 AM 30.7000 -91.7500 244° Southwest 353 406 38,000  Level FlightAware ADS-B
Sun 11:54:22 AM 30.6760 -91.8090 245° Southwest 353 406 38,000  Level FlightAware ADS-B
Sun 11:54:48 AM 30.6193 -91.9624 247° West 361 415 38,000  Level FlightAware ADS-B
Sun 11:55:19 AM 30.5974 -92.0153 244° Southwest 362 417 38,000  Level FlightAware ADS-B
Sun 11:55:52 AM 30.6210 -91.9390 70° East 353 406 38,000  Level FlightAware ADS-B
Sun 11:56:10 AM 30.5602 -92.1054 247° West 364 419 38,000  Level FlightAware ADS-B
Sun 11:56:45 AM 30.5353 -92.1660 245° Southwest 364 419 38,000  Level FlightAware ADS-B
Sun 11:57:26 AM 30.5055 -92.2378 244° Southwest 364 419 38,000  Level FlightAware ADS-B
Sun 11:57:56 AM 30.4833 -92.2915 244° Southwest 363 418 38,000  Level FlightAware ADS-B
Sun 11:58:27 AM 30.4613 -92.3444 244° Southwest 362 417 38,000  Level FlightAware ADS-B
Sun 11:58:57 AM 30.4395 -92.3966 244° Southwest 361 415 38,000  Level FlightAware ADS-B
Sun 11:59:28 AM 30.4169 -92.4505 244° Southwest 360 414 38,000  Level FlightAware ADS-B
Sun 12:00:01 PM 30.3927 -92.5085 244° Southwest 360 414 38,000  Level FlightAware ADS-B
Sun 12:00:31 PM 30.3712 -92.5603 244° Southwest 358 412 38,000  Level FlightAware ADS-B
Sun 12:01:01 PM 30.3495 -92.6123 244° Southwest 357 411 38,000  Level FlightAware ADS-B
Sun 12:01:32 PM 30.3273 -92.6651 244° Southwest 357 411 38,000  Level FlightAware ADS-B
Sun 12:02:03 PM 30.3054 -92.7174 244° Southwest 357 411 38,000  Level FlightAware ADS-B
Sun 12:02:33 PM 30.2833 -92.7703 244° Southwest 357 411 38,000  Level FlightAware ADS-B
Sun 12:03:04 PM 30.2612 -92.8227 244° Southwest 356 410 38,000  Level FlightAware ADS-B
Sun 12:03:34 PM 30.2395 -92.8741 244° Southwest 357 411 38,000  Level FlightAware ADS-B
Sun 12:04:07 PM 30.2155 -92.9305 244° Southwest 359 413 38,000  Level FlightAware ADS-B
Sun 12:04:38 PM 30.1928 -92.9844 244° Southwest 361 415 38,000  Level FlightAware ADS-B
Sun 12:05:08 PM 30.1706 -93.0370 244° Southwest 363 418 38,000  Level FlightAware ADS-B
Sun 12:05:40 PM 30.1476 -93.0912 244° Southwest 364 419 38,000  Level FlightAware ADS-B
Sun 12:06:10 PM 30.1251 -93.1451 244° Southwest 365 420 38,000  Level FlightAware ADS-B
Sun 12:06:40 PM 30.1033 -93.1981 245° Southwest 366 421 38,000  Level FlightAware ADS-B
Sun 12:07:11 PM 30.0813 -93.2514 245° Southwest 367 422 38,000  Level FlightAware ADS-B
Sun 12:07:41 PM 30.0590 -93.3053 244° Southwest 368 423 38,000  Level FlightAware ADS-B
Sun 12:08:11 PM 30.0366 -93.3591 244° Southwest 369 425 38,000  Level FlightAware ADS-B
Sun 12:08:42 PM 30.0138 -93.4139 244° Southwest 370 426 38,000  Level FlightAware ADS-B
Sun 12:09:13 PM 29.9913 -93.4679 244° Southwest 370 426 38,000  Level FlightAware ADS-B
Sun 12:09:44 PM 29.9682 -93.5233 244° Southwest 372 428 38,000  Level FlightAware ADS-B
Sun 12:10:17 PM 29.9436 -93.5823 244° Southwest 372 428 38,000  Level FlightAware ADS-B
Sun 12:10:47 PM 29.9210 -93.6363 244° Southwest 373 429 38,000  Level FlightAware ADS-B
Sun 12:11:17 PM 29.8983 -93.6906 244° Southwest 374 430 38,000  Level FlightAware ADS-B
Sun 12:11:47 PM 29.8764 -93.7427 244° Southwest 374 430 38,000  Level FlightAware ADS-B
Sun 12:12:17 PM 29.8534 -93.7971 244° Southwest 374 430 38,000  Level FlightAware ADS-B
Sun 12:12:47 PM 29.8307 -93.8512 244° Southwest 374 430 38,000  Level FlightAware ADS-B
Sun 12:13:17 PM 29.8081 -93.9048 244° Southwest 373 429 38,000  Level FlightAware ADS-B
Sun 12:13:47 PM 29.7855 -93.9588 244° Southwest 373 429 38,000  Level FlightAware ADS-B
Sun 12:14:18 PM 29.7629 -94.0126 244° Southwest 373 429 38,000  Level FlightAware ADS-B
Sun 12:14:48 PM 29.7402 -94.0662 244° Southwest 373 429 38,000  Level FlightAware ADS-B
Sun 12:15:18 PM 29.7174 -94.1199 244° Southwest 372 428 38,000  Level FlightAware ADS-B
Sun 12:15:48 PM 29.6948 -94.1732 244° Southwest 371 427 38,000  Level FlightAware ADS-B
Sun 12:16:16 PM 29.6735 -94.2231 244° Southwest 371 427 38,000  Level FlightAware ADS-B
Sun 12:16:30 PM 29.6613 -94.2469 239° Southwest 372 428 38,000  Level FlightAware ADS-B
Sun 12:17:01 PM 29.6315 -94.2964 235° Southwest 373 429 38,000  Level FlightAware ADS-B
Sun 12:17:32 PM 29.6009 -94.3472 235° Southwest 373 429 38,000  Level FlightAware ADS-B
Sun 12:18:02 PM 29.5713 -94.3964 235° Southwest 373 429 38,000  Level FlightAware ADS-B
Sun 12:18:32 PM 29.5416 -94.4452 235° Southwest 374 430 38,000  Level FlightAware ADS-B
Sun 12:19:03 PM 29.5115 -94.4949 235° Southwest 374 430 38,000  Level FlightAware ADS-B
Sun 12:19:33 PM 29.4813 -94.5447 235° Southwest 374 430 38,000  Level FlightAware ADS-B
Sun 12:20:03 PM 29.4516 -94.5941 235° Southwest 374 430 38,000  Level FlightAware ADS-B
Sun 12:20:34 PM 29.4219 -94.6429 235° Southwest 375 432 38,000  Level FlightAware ADS-B
Sun 12:21:04 PM 29.3918 -94.6925 235° Southwest 375 432 38,000  Level FlightAware ADS-B
Sun 12:21:34 PM 29.3618 -94.7417 235° Southwest 374 430 38,000  Level FlightAware ADS-B
Sun 12:22:05 PM 29.3318 -94.7909 235° Southwest 374 430 38,000  Level FlightAware ADS-B
Sun 12:22:35 PM 29.3010 -94.8413 235° Southwest 374 430 38,000  Level FlightAware ADS-B
Sun 12:23:06 PM 29.2712 -94.8902 235° Southwest 375 432 38,000  Level FlightAware ADS-B
Sun 12:23:36 PM 29.2408 -94.9397 235° Southwest 374 430 38,000  Level FlightAware ADS-B
Sun 12:24:11 PM 29.2066 -94.9957 235° Southwest 374 430 38,000  Level FlightAware ADS-B
Sun 12:24:41 PM 29.1767 -95.0445 235° Southwest 374 430 38,000  Level FlightAware ADS-B
Sun 12:25:11 PM 29.1461 -95.0942 235° Southwest 375 432 38,000  Level FlightAware ADS-B
Sun 12:25:42 PM 29.1161 -95.1432 235° Southwest 376 433 38,000  Level FlightAware ADS-B
Sun 12:26:12 PM 29.0860 -95.1921 235° Southwest 376 433 38,000  Level FlightAware ADS-B
Sun 12:26:42 PM 29.0559 -95.2410 235° Southwest 377 434 38,000  Level FlightAware ADS-B
Sun 12:27:12 PM 29.0256 -95.2904 235° Southwest 378 435 38,000  Level FlightAware ADS-B
Sun 12:27:42 PM 28.9951 -95.3397 235° Southwest 379 436 38,000  Level FlightAware ADS-B
Sun 12:28:43 PM 28.9333 -95.4394 235° Southwest 379 436 38,000  Level FlightAware ADS-B
Sun 12:29:32 PM 28.8850 -95.5180 235° Southwest 380 437 38,000  Level FlightAware ADS-B
Sun 12:30:12 PM 28.8460 -95.5800 234° Southwest 380 437 38,000  Level FlightAware ADS-B
Sun 12:30:57 PM 28.7990 -95.6560 235° Southwest 379 436 38,000  Level FlightAware ADS-B
Sun 12:31:37 PM 28.7580 -95.7210 234° Southwest 378 435 38,000  Level FlightAware ADS-B
Sun 12:32:22 PM 28.7130 -95.7930 235° Southwest 378 435 38,000  Level FlightAware ADS-B
Sun 12:33:02 PM 28.6730 -95.8570 235° Southwest 378 435 38,000  Level FlightAware ADS-B
Sun 12:33:42 PM 28.6330 -95.9220 235° Southwest 379 436 38,000  Level FlightAware ADS-B
Sun 12:33:50 PM 28.6220 -95.9394 234° Southwest 380 437 38,000  Level FlightAware ADS-B
Sun 12:34:21 PM 28.5909 -95.9888 234° Southwest 381 438 38,000  Level FlightAware ADS-B
Sun 12:34:52 PM 28.5591 -96.0392 234° Southwest 381 438 38,000  Level FlightAware ADS-B
Sun 12:35:22 PM 28.5284 -96.0883 235° Southwest 380 437 38,000  Level FlightAware ADS-B
Sun 12:35:52 PM 28.4976 -96.1374 234° Southwest 379 436 38,000  Level FlightAware ADS-B
Sun 12:36:23 PM 28.4665 -96.1869 234° Southwest 380 437 38,000  Level FlightAware ADS-B
Sun 12:36:36 PM 28.4532 -96.2098 237° Southwest 380 437 38,000  Level FlightAware ADS-B
Sun 12:37:07 PM 28.4252 -96.2621 239° Southwest 380 437 38,000  Level FlightAware ADS-B
Sun 12:37:28 PM 28.4067 -96.2969 239° Southwest 380 437 38,000  Level FlightAware ADS-B
Sun 12:38:07 PM 28.3770 -96.3580 241° Southwest 380 437 38,000  Level FlightAware ADS-B
Sun 12:38:47 PM 28.3480 -96.4170 241° Southwest 380 437 38,000  Level FlightAware ADS-B
Sun 12:39:27 PM 28.3190 -96.4760 241° Southwest 380 437 38,000  Level FlightAware ADS-B
Sun 12:40:17 PM 28.2830 -96.5510 241° Southwest 380 437 38,000  Level FlightAware ADS-B
Sun 12:40:57 PM 28.2540 -96.6100 241° Southwest 380 437 38,000  Level FlightAware ADS-B
Sun 12:41:37 PM 28.2250 -96.6690 241° Southwest 380 437 38,000  Level FlightAware ADS-B
Sun 12:42:17 PM 28.1960 -96.7290 241° Southwest 380 437 38,000  Level FlightAware ADS-B
Sun 12:42:52 PM 28.1390 -96.8450 241° Southwest 367 422 38,000  Level FlightAware ADS-B
Sun 12:43:47 PM 28.0990 -96.9280 241° Southwest 367 422 38,000  Level FlightAware ADS-B
Sun 12:44:27 PM 28.0710 -96.9850 241° Southwest 367 422 38,000  Level FlightAware ADS-B
Sun 12:45:07 PM 28.0430 -97.0420 241° Southwest 367 422 38,000  Level FlightAware ADS-B
Sun 12:45:47 PM 28.0150 -97.0990 241° Southwest 367 422 38,000  Level FlightAware ADS-B
Sun 12:46:27 PM 27.9870 -97.1560 241° Southwest 367 422 38,000  Level FlightAware ADS-B
Sun 12:47:17 PM 27.9520 -97.2280 241° Southwest 367 422 38,000  Level FlightAware ADS-B
Sun 12:47:57 PM 27.9240 -97.2850 241° Southwest 367 422 38,000  Level FlightAware ADS-B
Sun 12:48:37 PM 27.8960 -97.3420 241° Southwest 367 422 38,000  Level FlightAware ADS-B
Sun 12:49:22 PM 27.7520 -97.4560 215° Southwest 381 438 38,000  Level FlightAware ADS-B
Sun 12:49:57 PM 27.7120 -97.5120 231° Southwest 383 441 38,000  Level FlightAware ADS-B
Sun 12:50:42 PM 27.6670 -97.5770 232° Southwest 385 443 38,000  Level FlightAware ADS-B
Sun 12:51:27 PM 27.6140 -97.6530 232° Southwest 386 444 38,000  Level FlightAware ADS-B
Sun 12:52:07 PM 27.5730 -97.7100 231° Southwest 387 445 38,000  Level FlightAware ADS-B
Sun 12:52:47 PM 27.5340 -97.7640 231° Southwest 387 445 38,000  Level FlightAware ADS-B
Sun 12:53:27 PM 27.4960 -97.8170 231° Southwest 387 445 38,000  Level FlightAware ADS-B
Sun 12:54:07 PM 27.4580 -97.8700 231° Southwest 387 445 38,000  Level FlightAware ADS-B
Sun 12:54:57 PM 27.4100 -97.9370 231° Southwest 387 445 38,000  Level FlightAware ADS-B
Sun 12:55:37 PM 27.3710 -97.9900 230° Southwest 387 445 38,000  Level FlightAware ADS-B
Sun 12:56:17 PM 27.3330 -98.0440 232° Southwest 387 445 38,000  Level FlightAware ADS-B
Sun 12:56:57 PM 27.2950 -98.0970 231° Southwest 387 445 38,000  Level FlightAware ADS-B
Sun 12:57:47 PM 27.2470 -98.1630 231° Southwest 387 445 38,000  Level FlightAware ADS-B
Sun 12:58:27 PM 27.2090 -98.2170 232° Southwest 387 445 38,000  Level FlightAware ADS-B
Sun 12:59:07 PM 27.1700 -98.2700 230° Southwest 387 445 38,000  Level FlightAware ADS-B
Sun 12:59:47 PM 27.1320 -98.3230 231° Southwest 387 445 38,000  Level FlightAware ADS-B
Sun 01:00:37 PM 27.0840 -98.3890 231° Southwest 387 445 38,000  Level FlightAware ADS-B
Sun 01:01:17 PM 27.0460 -98.4420 231° Southwest 387 445 38,000  Level FlightAware ADS-B
Sun 01:01:43 PM 26.9283 -98.6136 231° Southwest 390 449 38,000  Level Houston Center
Sun 01:02:45 PM 26.8594 -98.7092 231° Southwest 392 451 38,000  Level Houston Center
Sun 01:03:46 PM 26.7894 -98.8081 232° Southwest 401 461 38,000  Level Houston Center
Sun 01:04:48 PM 26.7053 -98.9244 231° Southwest 401 461 38,000  Level Houston Center
Sun 01:05:50 PM 26.6356 -99.0206 231° Southwest 399 459 38,000  Level Houston Center
Sun 01:06:51 PM 26.5653 -99.1164 231° Southwest 399 459 38,000 585 Level Houston Center
Sun 01:07:53 PM 26.5058 -99.2192 237° Southwest 393 452 39,200 43 Climbing Houston Center
Sun 01:09:00 PM 26.4178 -99.3026 228° Southwest  Level FlightAware Approximate
Sun 01:16:00 PM 25.9349 -99.8953 228° Southwest  Level FlightAware Approximate
Sun 01:17:00 PM 25.8657 -99.9796 228° Southwest  Level FlightAware Approximate
Sun 01:18:00 PM 25.7965 -100.0638 228° Southwest  Level FlightAware Approximate
Sun 01:19:00 PM 25.7757 -100.1641 279° West  Level FlightAware Approximate
Sun 01:20:00 PM 25.7915 -100.2767 279° West  Level FlightAware Approximate
Sun 01:21:00 PM 25.8072 -100.3894 279° West  Level FlightAware Approximate
Sun 01:22:00 PM 25.8228 -100.5021 279° West  Level FlightAware Approximate
Sun 01:23:00 PM 25.8383 -100.6148 279° West  Level FlightAware Approximate
Sun 01:24:00 PM 25.8287 -100.7146 212° Southwest  Level FlightAware Approximate
Sun 01:25:00 PM 25.7413 -100.7745 212° Southwest  Level FlightAware Approximate
Sun 01:26:00 PM 25.6540 -100.8343 212° Southwest  Level FlightAware Approximate
Sun 01:27:00 PM 25.5666 -100.8940 212° Southwest  Level FlightAware Approximate
Sun 01:28:00 PM 25.5113 -100.9828 250° West  Level FlightAware Approximate
Sun 01:29:00 PM 25.4758 -101.0894 250° West  Level FlightAware Approximate
Sun 01:30:00 PM 25.4375 -101.1949 248° West  Level FlightAware Approximate
Sun 01:31:00 PM 25.3983 -101.2999 248° West  Level FlightAware Approximate
Sun 01:32:00 PM 25.3590 -101.4048 248° West  Level FlightAware Approximate
Sun 01:33:00 PM 25.3196 -101.5097 247° West  Level FlightAware Approximate
Sun 01:34:00 PM 25.2801 -101.6145 247° West  Level FlightAware Approximate
Sun 01:35:00 PM 25.2406 -101.7192 247° West  Level FlightAware Approximate
Sun 01:36:00 PM 25.2010 -101.8239 247° West  Level FlightAware Approximate
Sun 01:37:00 PM 25.1613 -101.9285 247° West  Level FlightAware Approximate
Sun 01:38:00 PM 25.1216 -102.0330 247° West  Level FlightAware Approximate
Sun 01:39:00 PM 25.0816 -102.1374 244° Southwest  Level FlightAware Approximate
Sun 01:40:00 PM 25.0373 -102.2395 244° Southwest  Level FlightAware Approximate
Sun 01:41:00 PM 24.9929 -102.3417 244° Southwest  Level FlightAware Approximate
Sun 01:42:00 PM 24.9485 -102.4437 244° Southwest  Level FlightAware Approximate
Sun 01:43:00 PM 24.9052 -102.5463 247° West  Level FlightAware Approximate
Sun 01:44:00 PM 24.8648 -102.6503 247° West  Level FlightAware Approximate
Sun 01:45:00 PM 24.8243 -102.7542 247° West  Level FlightAware Approximate
Sun 01:46:00 PM 24.7640 -102.8383 209° Southwest  Level FlightAware Approximate
Sun 01:47:00 PM 24.6739 -102.8923 209° Southwest  Level FlightAware Approximate
Sun 01:48:00 PM 24.5837 -102.9476 210° Southwest  Level FlightAware Approximate
Sun 01:49:00 PM 24.4937 -103.0036 210° Southwest  Level FlightAware Approximate
Sun 01:50:00 PM 24.4038 -103.0594 210° Southwest  Level FlightAware Approximate
Sun 01:51:00 PM 24.3139 -103.1152 209° Southwest  Level FlightAware Approximate
Sun 01:52:00 PM 24.2239 -103.1710 209° Southwest  Level FlightAware Approximate
Sun 01:53:00 PM 24.1336 -103.2260 208° Southwest  Level FlightAware Approximate
Sun 01:53:17 PM 23.4730 -103.3810 208° Southwest 390 449 40,000  Level FlightAware ADS-B
Sun 01:53:57 PM 23.4200 -103.4190 213° Southwest 396 456 40,000  Level FlightAware ADS-B
Sun 01:54:00 PM 24.0420 -103.2784 208° Southwest  Level FlightAware Approximate
Sun 01:54:42 PM 23.3450 -103.4730 213° Southwest 397 457 40,000  Level FlightAware ADS-B
Sun 01:55:22 PM 23.2840 -103.5170 214° Southwest 398 458 40,000  Level FlightAware ADS-B
Sun 01:56:07 PM 23.2160 -103.5660 214° Southwest 401 461 40,000  Level FlightAware ADS-B
Sun 01:56:42 PM 23.1650 -103.6030 214° Southwest 399 459 40,000  Level FlightAware ADS-B
Sun 01:57:27 PM 23.1010 -103.6480 213° Southwest 399 459 40,000  Level FlightAware ADS-B
Sun 01:58:27 PM 23.0100 -103.7140 214° Southwest 396 456 40,000  Level FlightAware ADS-B
Sun 01:59:07 PM 22.9580 -103.7510 213° Southwest 396 456 40,000  Level FlightAware ADS-B
Sun 01:59:47 PM 22.9050 -103.7880 213° Southwest 396 456 40,000  Level FlightAware ADS-B
Sun 02:02:00 PM 22.7102 -103.9186 212° Southwest  Level Estimated
Sun 02:03:00 PM 22.6223 -103.9774 212° Southwest  Level Estimated
Sun 02:04:00 PM 22.5343 -104.0361 212° Southwest  Level Estimated
Sun 02:05:00 PM 22.4463 -104.0947 212° Southwest  Level Estimated
Sun 02:06:00 PM 22.3584 -104.1533 212° Southwest  Level Estimated
Sun 02:07:00 PM 22.2703 -104.2118 212° Southwest  Level Estimated
Sun 02:08:00 PM 22.1823 -104.2702 212° Southwest  Level Estimated
Sun 02:09:00 PM 22.0943 -104.3286 212° Southwest  Level Estimated
Sun 02:10:00 PM 22.0062 -104.3868 212° Southwest  Level Estimated
Sun 02:11:00 PM 21.9181 -104.4450 212° Southwest  Level Estimated
Sun 02:12:00 PM 21.8300 -104.5032 211° Southwest  Level Estimated
Sun 02:13:00 PM 21.7419 -104.5612 211° Southwest  Level Estimated
Sun 02:14:00 PM 21.6537 -104.6192 211° Southwest  Level Estimated
Sun 02:15:00 PM 21.5655 -104.6771 211° Southwest  Level Estimated
Sun 02:16:00 PM 21.4774 -104.7350 211° Southwest  Level Estimated
Sun 02:17:00 PM 21.3891 -104.7927 211° Southwest  Level Estimated
Sun 02:18:00 PM 21.3009 -104.8504 211° Southwest  Level Estimated
Sun 02:19:00 PM 21.2127 -104.9081 211° Southwest  Level Estimated
Sun 02:20:00 PM 21.1244 -104.9656 211° Southwest  Level Estimated
Sun 02:21:00 PM 21.0361 -105.0231 211° Southwest  Level Estimated
Sun 02:22:00 PM 20.9478 -105.0806 211° Southwest  Level Estimated
Sun 02:23:00 PM 20.8595 -105.1379 211° Southwest  Level Estimated
Sun 02:24:00 PM 20.7711 -105.1952 211° Southwest  Level Estimated
Sun 02:25:00 PM 20.6827 -105.2524 211° Southwest  Level Estimated
Sun 02:26:00 PM 20.6801 -105.2542 211° Southwest  Level Estimated
Sun 02:27:00 PM 20.6801 -105.2542 43° Northeast  Level Estimated
Sun 02:28:00 PM 20.6801 -105.2542 43° Northeast  Level Estimated
Sun 02:29:00 PM 20.6801 -105.2542 43° Northeast  Level Estimated
Sun 02:30:00 PM 20.6801 -105.2542 43° Northeast  Level Estimated

Login

Don't have an account? Register now (free) for customized features, flight alerts, and more!